createdAt,value
2019-06-01T00:00:46.578Z,6.37
2019-06-01T00:03:18.939Z,6.20
2019-06-01T00:05:49.731Z,6.57
2019-06-01T00:08:20.557Z,6.63
2019-06-01T00:10:51.353Z,6.30
2019-06-01T00:13:22.142Z,6.27
2019-06-01T00:15:52.974Z,5.63
2019-06-01T00:18:23.785Z,5.77
2019-06-01T00:20:54.990Z,6.07
2019-06-01T00:23:25.898Z,5.60
2019-06-01T00:25:56.732Z,5.80
2019-06-01T00:28:27.603Z,6.03
2019-06-01T00:30:58.521Z,6.73
2019-06-01T00:33:29.459Z,6.67
2019-06-01T00:36:00.227Z,5.97
2019-06-01T00:38:31.063Z,6.77
2019-06-01T00:41:03.151Z,6.30
2019-06-01T00:43:34.057Z,5.90
2019-06-01T00:46:05.043Z,6.70
2019-06-01T00:48:35.831Z,5.83
2019-06-01T00:51:06.746Z,5.87
2019-06-01T00:53:37.587Z,6.00
2019-06-01T00:56:08.393Z,5.83
2019-06-01T00:58:39.210Z,6.10
2019-06-01T01:01:10.329Z,5.90
2019-06-01T01:03:41.189Z,6.43
2019-06-01T01:06:12.123Z,5.90
2019-06-01T01:08:42.948Z,6.97
2019-06-01T01:11:13.908Z,7.17
2019-06-01T01:13:45.667Z,7.57
2019-06-01T01:16:17.696Z,7.80
2019-06-01T01:18:49.657Z,7.83
2019-06-01T01:21:20.577Z,7.07
2019-06-01T01:23:53.019Z,7.13
2019-06-01T01:26:24.079Z,6.17
2019-06-01T01:28:55.017Z,6.63
2019-06-01T01:31:26.739Z,6.87
2019-06-01T01:33:57.681Z,6.70
2019-06-01T01:36:28.582Z,6.57
2019-06-01T01:39:02.232Z,6.43
2019-06-01T01:41:34.672Z,6.47
2019-06-01T01:44:05.769Z,6.30
2019-06-01T01:46:36.604Z,7.07
2019-06-01T01:49:07.403Z,5.90
2019-06-01T01:51:38.734Z,5.63
2019-06-01T01:54:09.541Z,5.90
2019-06-01T01:56:40.453Z,6.30
2019-06-01T01:59:11.250Z,6.00
2019-06-01T02:01:43.098Z,6.40
2019-06-01T02:04:13.910Z,6.40
2019-06-01T02:06:44.711Z,6.07
2019-06-01T02:09:15.566Z,6.57
2019-06-01T02:11:47.491Z,6.30
2019-06-01T02:14:18.323Z,6.23
2019-06-01T02:16:49.131Z,7.00
2019-06-01T02:19:19.968Z,6.10
2019-06-01T02:21:50.869Z,6.60
2019-06-01T02:24:22.768Z,6.83
2019-06-01T02:26:54.987Z,7.27
2019-06-01T02:29:26.049Z,6.77
2019-06-01T02:31:56.881Z,7.47
2019-06-01T02:34:27.691Z,7.13
2019-06-01T02:36:58.484Z,6.67
2019-06-01T02:39:29.513Z,6.43
2019-06-01T02:42:01.270Z,6.40
2019-06-01T02:44:33.845Z,6.50
2019-06-01T02:47:06.386Z,7.03
2019-06-01T02:49:38.227Z,6.37
2019-06-01T02:52:10.107Z,6.97
2019-06-01T02:54:41.156Z,7.27
2019-06-01T02:57:11.962Z,6.60
2019-06-01T02:59:42.788Z,7.07
2019-06-01T03:02:15.205Z,6.97
2019-06-01T03:04:46.442Z,7.17
2019-06-01T03:07:18.457Z,7.20
2019-06-01T03:09:49.706Z,6.77
2019-06-01T03:12:22.346Z,6.70
2019-06-01T03:14:54.514Z,7.20
2019-06-01T03:17:27.724Z,7.30
2019-06-01T03:20:02.019Z,6.83
2019-06-01T03:22:34.387Z,7.03
2019-06-01T03:25:06.067Z,7.10
2019-06-01T03:27:38.890Z,7.43
2019-06-01T03:30:15.133Z,6.80
2019-06-01T03:32:45.595Z,6.83
2019-06-01T03:35:16.455Z,6.77
2019-06-01T03:37:47.443Z,6.83
2019-06-01T03:40:23.778Z,6.77
2019-06-01T03:42:52.274Z,6.57
2019-06-01T03:45:23.085Z,6.50
2019-06-01T03:47:54.124Z,6.70
2019-06-01T03:50:24.906Z,6.83
2019-06-01T03:52:57.619Z,5.77
2019-06-01T03:55:28.531Z,7.00
2019-06-01T03:57:59.290Z,6.80
2019-06-01T04:00:30.052Z,6.23
2019-06-01T04:03:00.883Z,6.73
2019-06-01T04:05:31.728Z,6.87
2019-06-01T04:08:03.426Z,6.90
2019-06-01T04:10:34.339Z,7.00
2019-06-01T04:13:05.602Z,5.97
2019-06-01T04:15:36.599Z,6.37
2019-06-01T04:18:08.100Z,6.67
2019-06-01T04:20:40.583Z,6.33
2019-06-01T04:23:13.015Z,6.47
2019-06-01T04:25:43.818Z,7.40
2019-06-01T04:28:14.593Z,6.93
2019-06-01T04:30:45.406Z,7.53
2019-06-01T04:33:16.197Z,7.23
2019-06-01T04:35:46.963Z,7.47
2019-06-01T04:38:17.826Z,7.80
2019-06-01T04:40:48.899Z,8.13
2019-06-01T04:43:19.688Z,8.83
2019-06-01T04:45:50.579Z,8.80
2019-06-01T04:48:21.873Z,8.43
2019-06-01T04:50:52.775Z,7.57
2019-06-01T04:53:24.653Z,8.77
2019-06-01T04:55:55.409Z,7.60
2019-06-01T04:58:27.980Z,7.83
2019-06-01T05:00:58.760Z,7.93
2019-06-01T05:03:29.731Z,7.97
2019-06-01T05:06:00.543Z,7.57
2019-06-01T05:08:31.420Z,7.57
2019-06-01T05:11:05.372Z,8.43
2019-06-01T05:13:35.745Z,8.73
2019-06-01T05:16:07.923Z,8.17
2019-06-01T05:18:38.759Z,9.27
2019-06-01T05:21:10.370Z,9.40
2019-06-01T05:23:41.303Z,10.43
2019-06-01T05:26:13.161Z,9.93
2019-06-01T05:28:44.116Z,9.53
2019-06-01T05:31:21.940Z,9.70
2019-06-01T05:33:47.587Z,10.20
2019-06-01T05:36:18.422Z,9.80
2019-06-01T05:38:50.437Z,9.10
2019-06-01T05:41:21.600Z,9.90
2019-06-01T05:43:52.424Z,8.87
2019-06-01T05:46:23.181Z,9.03
2019-06-01T05:48:53.999Z,9.50
2019-06-01T05:51:24.804Z,8.10
2019-06-01T05:53:55.698Z,8.40
2019-06-01T05:56:26.497Z,7.93
2019-06-01T05:58:59.883Z,7.60
2019-06-01T06:01:30.656Z,7.50
2019-06-01T06:04:01.510Z,7.60
2019-06-01T06:06:32.278Z,8.00
2019-06-01T06:09:05.505Z,8.67
2019-06-01T06:11:37.272Z,7.63
2019-06-01T06:14:08.113Z,8.33
2019-06-01T06:16:38.958Z,8.87
2019-06-01T06:19:09.735Z,7.90
2019-06-01T06:21:40.571Z,7.73
2019-06-01T06:24:12.193Z,7.47
2019-06-01T06:26:43.352Z,8.83
2019-06-01T06:29:14.743Z,8.50
2019-06-01T06:31:47.624Z,8.23
2019-06-01T06:34:19.591Z,8.60
2019-06-01T06:36:50.606Z,9.07
2019-06-01T06:39:22.111Z,9.90
2019-06-01T06:41:53.092Z,9.43
2019-06-01T06:44:24.781Z,8.70
2019-06-01T06:46:55.759Z,8.50
2019-06-01T06:49:26.609Z,8.80
2019-06-01T06:51:57.460Z,9.30
2019-06-01T06:54:28.311Z,8.53
2019-06-01T06:56:59.227Z,9.37
2019-06-01T06:59:30.082Z,8.80
2019-06-01T07:02:01.027Z,7.93
2019-06-01T07:04:31.898Z,9.03
2019-06-01T07:07:02.827Z,9.00
2019-06-01T07:09:33.839Z,7.80
2019-06-01T07:12:04.699Z,6.90
2019-06-01T07:14:35.530Z,6.33
2019-06-01T07:17:06.320Z,6.37
2019-06-01T07:19:37.100Z,5.90
2019-06-01T07:22:07.928Z,5.63
2019-06-01T07:24:38.690Z,5.47
2019-06-01T07:27:09.642Z,4.90
2019-06-01T07:29:40.548Z,4.70
2019-06-01T07:32:13.412Z,5.30
2019-06-01T07:34:45.372Z,4.83
2019-06-01T07:37:16.158Z,6.03
2019-06-01T07:39:48.066Z,5.07
2019-06-01T07:42:18.965Z,4.63
2019-06-01T07:44:49.926Z,4.10
2019-06-01T07:47:24.987Z,4.63
2019-06-01T07:49:55.973Z,4.63
2019-06-01T07:52:28.215Z,4.97
2019-06-01T07:54:59.203Z,4.03
2019-06-01T07:57:30.012Z,4.47
2019-06-01T08:00:00.969Z,4.50
2019-06-01T08:02:33.052Z,4.17
2019-06-01T08:05:04.389Z,4.73
2019-06-01T08:07:35.329Z,5.20
2019-06-01T08:10:06.959Z,3.97
2019-06-01T08:12:37.914Z,3.93
2019-06-01T08:15:09.326Z,3.83
2019-06-01T08:17:40.317Z,4.27
2019-06-01T08:20:11.490Z,4.53
2019-06-01T08:22:42.409Z,4.70
2019-06-01T08:25:13.422Z,4.70
2019-06-01T08:27:44.287Z,4.83
2019-06-01T08:30:15.894Z,4.37
2019-06-01T08:32:46.797Z,4.53
2019-06-01T08:35:17.703Z,4.23
2019-06-01T08:37:49.149Z,4.07
2019-06-01T08:40:20.361Z,3.90
2019-06-01T08:42:51.326Z,3.90
2019-06-01T08:45:23.422Z,3.70
2019-06-01T08:47:54.336Z,3.57
2019-06-01T08:50:25.694Z,3.67
2019-06-01T08:52:56.590Z,3.83
2019-06-01T08:55:28.058Z,3.80
2019-06-01T08:57:59.150Z,3.40
2019-06-01T09:00:30.588Z,3.40
2019-06-01T09:03:01.644Z,3.67
2019-06-01T09:05:33.143Z,3.97
2019-06-01T09:08:04.058Z,3.60
2019-06-01T09:10:35.528Z,3.50
2019-06-01T09:13:06.498Z,3.50
2019-06-01T09:15:37.288Z,3.33
2019-06-01T09:18:08.188Z,3.70
2019-06-01T09:20:40.429Z,4.80
2019-06-01T09:23:11.279Z,4.15
2019-06-01T09:25:42.123Z,4.42
2019-06-01T09:28:13.006Z,5.03
2019-06-01T09:30:44.148Z,5.57
2019-06-01T09:33:14.924Z,4.33
2019-06-01T09:35:55.306Z,4.87
2019-06-01T09:38:21.417Z,4.40
2019-06-01T09:40:52.286Z,4.53
2019-06-01T09:43:24.626Z,4.60
2019-06-01T09:45:55.481Z,3.43
2019-06-01T09:48:27.069Z,4.17
2019-06-01T09:50:58.201Z,3.37
2019-06-01T09:53:30.503Z,3.00
2019-06-01T09:56:01.585Z,4.50
2019-06-01T09:58:34.563Z,3.63
2019-06-01T10:01:06.090Z,4.33
2019-06-01T10:03:38.381Z,3.77
2019-06-01T10:06:09.509Z,3.87
2019-06-01T10:08:40.275Z,3.93
2019-06-01T10:11:11.206Z,3.23
2019-06-01T10:13:42.618Z,3.90
2019-06-01T10:16:13.816Z,3.03
2019-06-01T10:18:44.707Z,3.83
2019-06-01T10:21:15.570Z,3.67
2019-06-01T10:23:49.480Z,3.00
2019-06-01T10:26:19.185Z,2.77
2019-06-01T10:28:50.075Z,2.40
2019-06-01T10:31:21.364Z,2.70
2019-06-01T10:33:52.300Z,2.97
2019-06-01T10:36:23.254Z,2.60
2019-06-01T10:38:54.135Z,3.53
2019-06-01T10:41:25.035Z,3.70
2019-06-01T10:43:55.849Z,3.17
2019-06-01T10:46:26.717Z,2.87
2019-06-01T10:48:57.575Z,3.33
2019-06-01T10:51:28.553Z,2.30
2019-06-01T10:53:59.455Z,3.53
2019-06-01T10:56:30.248Z,3.17
2019-06-01T10:59:01.094Z,3.87
2019-06-01T11:01:34.117Z,2.40
2019-06-01T11:04:04.680Z,2.93
2019-06-01T11:06:40.954Z,2.80
2019-06-01T11:09:09.304Z,2.77
2019-06-01T11:11:41.163Z,2.77
2019-06-01T11:14:13.884Z,2.50
2019-06-01T11:16:45.850Z,2.63
2019-06-01T11:19:16.656Z,2.77
2019-06-01T11:21:47.964Z,3.40
2019-06-01T11:24:18.798Z,3.37
2019-06-01T11:26:49.789Z,3.20
2019-06-01T11:29:22.591Z,3.10
2019-06-01T11:31:53.902Z,3.03
2019-06-01T11:34:24.799Z,3.40
2019-06-01T11:37:04.871Z,2.83
2019-06-01T11:39:28.160Z,3.33
2019-06-01T11:41:59.040Z,2.63
2019-06-01T11:44:29.944Z,2.13
2019-06-01T11:47:00.736Z,2.40
2019-06-01T11:49:31.618Z,3.10
2019-06-01T11:52:02.786Z,3.03
2019-06-01T11:54:34.994Z,3.50
2019-06-01T11:57:05.964Z,2.90
2019-06-01T11:59:37.294Z,2.60
2019-06-01T12:02:08.617Z,2.70
2019-06-01T12:04:41.879Z,2.70
2019-06-01T12:07:17.350Z,2.98
2019-06-01T12:09:46.122Z,2.90
2019-06-01T12:12:17.069Z,2.43
2019-06-01T12:14:47.905Z,2.17
2019-06-01T12:17:18.795Z,2.50
2019-06-01T12:19:49.746Z,2.50
2019-06-01T12:22:20.537Z,3.07
2019-06-01T12:24:51.508Z,3.10
2019-06-01T12:27:22.356Z,2.80
2019-06-01T12:29:54.368Z,3.10
2019-06-01T12:32:25.236Z,2.50
2019-06-01T12:34:56.089Z,3.00
2019-06-01T12:37:45.491Z,2.47
2019-06-01T12:39:59.833Z,2.40
2019-06-01T12:42:39.734Z,2.70
2019-06-01T12:45:22.617Z,3.10
2019-06-01T12:47:55.676Z,2.63
2019-06-01T12:50:23.995Z,2.57
2019-06-01T12:52:55.686Z,2.20
2019-06-01T12:55:26.537Z,1.80
2019-06-01T12:57:59.119Z,1.83
2019-06-01T13:00:30.099Z,2.13
2019-06-01T13:03:06.969Z,1.70
2019-06-01T13:05:33.676Z,1.73
2019-06-01T13:08:04.563Z,1.80
2019-06-01T13:10:35.452Z,2.03
2019-06-01T13:13:06.297Z,2.03
2019-06-01T13:15:37.092Z,1.90
2019-06-01T13:18:08.275Z,1.90
2019-06-01T13:20:41.418Z,2.03
2019-06-01T13:23:15.695Z,1.77
2019-06-01T13:25:47.644Z,1.60
2019-06-01T13:28:19.666Z,1.87
2019-06-01T13:30:52.880Z,1.70
2019-06-01T13:33:24.078Z,1.53
2019-06-01T13:35:54.924Z,1.87
2019-06-01T13:38:25.862Z,1.67
2019-06-01T13:40:56.727Z,1.57
2019-06-01T13:43:27.644Z,1.70
2019-06-01T13:45:58.430Z,1.70
2019-06-01T13:48:29.374Z,1.23
2019-06-01T13:51:00.205Z,1.60
2019-06-01T13:53:35.158Z,1.80
2019-06-01T13:56:06.147Z,1.87
2019-06-01T13:58:37.036Z,1.90
2019-06-01T14:01:10.942Z,1.50
2019-06-01T14:03:49.362Z,1.60
2019-06-01T14:06:20.330Z,1.83
2019-06-01T14:08:55.171Z,1.50
2019-06-01T14:11:26.184Z,1.47
2019-06-01T14:13:57.080Z,1.97
2019-06-01T14:16:28.067Z,1.43
2019-06-01T14:18:58.945Z,1.30
2019-06-01T14:21:29.720Z,1.50
2019-06-01T14:24:00.622Z,1.70
2019-06-01T14:26:31.433Z,1.50
2019-06-01T14:29:02.458Z,1.57
2019-06-01T14:31:33.258Z,1.40
2019-06-01T14:34:04.043Z,1.87
2019-06-01T14:36:34.824Z,1.67
2019-06-01T14:39:08.113Z,1.73
2019-06-01T14:41:39.112Z,1.70
2019-06-01T14:44:10.125Z,1.83
2019-06-01T14:46:56.110Z,1.47
2019-06-01T14:49:26.373Z,1.65
2019-06-01T14:51:57.854Z,1.73
2019-06-01T14:54:29.910Z,1.57
2019-06-01T14:57:00.780Z,1.60
2019-06-01T14:59:31.551Z,1.70
2019-06-01T15:02:02.447Z,1.60
2019-06-01T15:04:33.283Z,2.03
2019-06-01T15:07:04.173Z,1.40
2019-06-01T15:09:35.058Z,1.50
2019-06-01T15:12:06.063Z,1.67
2019-06-01T15:14:36.875Z,2.90
2019-06-01T15:17:07.714Z,1.90
2019-06-01T15:19:38.603Z,1.70
2019-06-01T15:22:09.541Z,1.80
2019-06-01T15:24:42.703Z,1.60
2019-06-01T15:27:13.584Z,1.53
2019-06-01T15:29:44.521Z,1.50
2019-06-01T15:32:15.321Z,1.67
2019-06-01T15:34:46.129Z,1.80
2019-06-01T15:37:16.961Z,1.70
2019-06-01T15:39:47.851Z,1.60
2019-06-01T15:42:18.850Z,1.50
2019-06-01T15:44:50.942Z,1.80
2019-06-01T15:47:22.172Z,2.00
2019-06-01T15:49:53.588Z,3.27
2019-06-01T15:52:24.682Z,2.00
2019-06-01T15:54:56.287Z,1.97
2019-06-01T15:57:27.257Z,1.90
2019-06-01T15:59:58.595Z,2.12
2019-06-01T16:02:30.429Z,1.60
2019-06-01T16:05:01.523Z,1.57
2019-06-01T16:07:32.534Z,1.70
2019-06-01T16:10:06.449Z,1.80
2019-06-01T16:12:36.114Z,1.70
2019-06-01T16:15:07.801Z,1.47
2019-06-01T16:17:38.693Z,1.77
2019-06-01T16:20:10.185Z,1.90
2019-06-01T16:22:41.051Z,2.30
2019-06-01T16:25:14.737Z,2.00
2019-06-01T16:27:45.583Z,2.07
2019-06-01T16:30:16.797Z,1.90
2019-06-01T16:32:47.743Z,1.90
2019-06-01T16:35:18.516Z,1.93
2019-06-01T16:37:50.318Z,2.30
2019-06-01T16:40:21.712Z,1.60
2019-06-01T16:42:53.023Z,1.80
2019-06-01T16:45:25.399Z,1.80
2019-06-01T16:47:57.334Z,1.70
2019-06-01T16:50:28.438Z,2.60
2019-06-01T16:53:00.169Z,1.60
2019-06-01T16:55:31.620Z,1.60
2019-06-01T16:58:03.602Z,1.80
2019-06-01T17:00:34.585Z,1.70
2019-06-01T17:03:06.978Z,1.60
2019-06-01T17:05:38.090Z,1.67
2019-06-01T17:08:08.914Z,1.60
2019-06-01T17:10:39.815Z,1.50
2019-06-01T17:13:10.846Z,2.10
2019-06-01T17:15:41.799Z,1.90
2019-06-01T17:18:12.724Z,1.80
2019-06-01T17:20:48.062Z,1.90
2019-06-01T17:23:28.629Z,1.70
2019-06-01T17:25:53.452Z,1.70
2019-06-01T17:28:24.261Z,1.90
2019-06-01T17:30:55.174Z,1.90
2019-06-01T17:33:26.023Z,1.77
2019-06-01T17:35:56.911Z,2.43
2019-06-01T17:38:27.855Z,2.13
2019-06-01T17:41:00.256Z,2.30
2019-06-01T17:43:33.135Z,2.00
2019-06-01T17:46:05.265Z,3.27
2019-06-01T17:48:36.423Z,2.30
2019-06-01T17:51:08.530Z,1.93
2019-06-01T17:53:39.431Z,2.13
2019-06-01T17:56:12.156Z,1.67
2019-06-01T17:58:43.038Z,2.07
2019-06-01T18:01:14.012Z,2.60
2019-06-01T18:03:45.028Z,1.83
2019-06-01T18:06:15.968Z,2.13
2019-06-01T18:08:46.908Z,1.80
2019-06-01T18:11:17.793Z,2.13
2019-06-01T18:13:49.735Z,1.90
2019-06-01T18:16:20.544Z,1.70
2019-06-01T18:18:51.393Z,1.70
2019-06-01T18:21:22.496Z,2.30
2019-06-01T18:23:53.320Z,1.50
2019-06-01T18:26:25.349Z,2.10
2019-06-01T18:28:56.232Z,1.70
2019-06-01T18:31:27.092Z,2.07
2019-06-01T18:33:58.075Z,1.87
2019-06-01T18:36:30.207Z,1.83
2019-06-01T18:39:01.203Z,1.90
2019-06-01T18:41:33.776Z,1.57
2019-06-01T18:44:05.588Z,1.37
2019-06-01T18:46:37.486Z,1.73
2019-06-01T18:49:09.896Z,1.70
2019-06-01T18:51:41.375Z,2.00
2019-06-01T18:54:15.137Z,2.00
2019-06-01T18:56:46.444Z,2.10
2019-06-01T18:59:17.339Z,1.93
2019-06-01T19:01:48.230Z,1.90
2019-06-01T19:04:19.272Z,2.13
2019-06-01T19:06:50.048Z,1.80
2019-06-01T19:09:20.873Z,1.80
2019-06-01T19:11:51.843Z,1.80
2019-06-01T19:14:22.911Z,2.10
2019-06-01T19:16:53.777Z,1.97
2019-06-01T19:19:24.742Z,2.40
2019-06-01T19:21:55.555Z,2.37
2019-06-01T19:24:26.439Z,2.10
2019-06-01T19:26:58.438Z,2.10
2019-06-01T19:29:29.493Z,2.37
2019-06-01T19:32:02.184Z,2.10
2019-06-01T19:34:33.128Z,2.20
2019-06-01T19:37:04.729Z,2.27
2019-06-01T19:39:36.018Z,2.30
2019-06-01T19:42:07.228Z,2.20
2019-06-01T19:44:38.299Z,2.27
2019-06-01T19:47:09.816Z,2.33
2019-06-01T19:49:43.878Z,2.30
2019-06-01T19:52:14.825Z,2.33
2019-06-01T19:54:46.054Z,3.00
2019-06-01T19:57:21.422Z,2.50
2019-06-01T19:59:50.205Z,2.40
2019-06-01T20:02:32.818Z,2.43
2019-06-01T20:04:53.604Z,2.87
2019-06-01T20:07:24.442Z,2.97
2019-06-01T20:09:55.438Z,2.40
2019-06-01T20:12:26.429Z,2.77
2019-06-01T20:14:57.549Z,2.97
2019-06-01T20:17:28.490Z,2.60
2019-06-01T20:19:59.512Z,3.03
2019-06-01T20:22:31.491Z,2.90
2019-06-01T20:25:02.599Z,2.87
2019-06-01T20:27:34.422Z,2.63
2019-06-01T20:30:06.458Z,3.13
2019-06-01T20:32:38.674Z,3.20
2019-06-01T20:35:09.524Z,3.73
2019-06-01T20:37:40.438Z,3.90
2019-06-01T20:40:12.137Z,3.10
2019-06-01T20:42:43.157Z,3.27
2019-06-01T20:45:14.587Z,3.40
2019-06-01T20:47:45.538Z,3.53
2019-06-01T20:50:16.795Z,4.10
2019-06-01T20:52:47.820Z,3.63
2019-06-01T20:55:19.119Z,3.80
2019-06-01T20:57:50.757Z,3.70
2019-06-01T21:00:21.836Z,3.53
2019-06-01T21:02:53.055Z,3.73
2019-06-01T21:05:24.152Z,4.00
2019-06-01T21:07:57.453Z,4.60
2019-06-01T21:10:27.703Z,4.60
2019-06-01T21:12:58.665Z,4.65
2019-06-01T21:15:30.432Z,4.50
2019-06-01T21:18:01.269Z,4.50
2019-06-01T21:20:32.111Z,4.60
2019-06-01T21:23:03.092Z,4.27
2019-06-01T21:25:34.052Z,4.08
2019-06-01T21:28:05.213Z,3.87
2019-06-01T21:30:36.202Z,4.22
2019-06-01T21:33:07.174Z,4.40
2019-06-01T21:35:37.968Z,4.15
2019-06-01T21:38:08.787Z,4.30
2019-06-01T21:40:39.665Z,4.10
2019-06-01T21:43:23.917Z,4.00
2019-06-01T21:45:43.153Z,4.10
2019-06-01T21:48:15.618Z,4.00
2019-06-01T21:50:46.625Z,4.40
2019-06-01T21:53:18.006Z,4.37
2019-06-01T21:55:48.861Z,4.63
2019-06-01T21:58:21.153Z,5.00
2019-06-01T22:00:53.262Z,4.70
2019-06-01T22:03:25.635Z,4.87
2019-06-01T22:05:56.611Z,4.33
2019-06-01T22:08:27.706Z,4.10
2019-06-01T22:10:58.539Z,4.73
2019-06-01T22:13:29.376Z,4.10
2019-06-01T22:16:00.464Z,4.37
2019-06-01T22:18:31.280Z,3.97
2019-06-01T22:21:02.046Z,4.20
2019-06-01T22:23:32.781Z,4.40
2019-06-01T22:26:03.911Z,4.17
2019-06-01T22:28:34.895Z,3.70
2019-06-01T22:31:05.718Z,4.70
2019-06-01T22:33:36.652Z,4.40
2019-06-01T22:36:07.595Z,5.03
2019-06-01T22:38:38.478Z,5.20
2019-06-01T22:41:10.552Z,4.20
2019-06-01T22:43:46.518Z,4.47
2019-06-01T22:46:14.015Z,4.80
2019-06-01T22:48:44.962Z,4.87
2019-06-01T22:51:17.617Z,4.78
2019-06-01T22:53:48.421Z,4.80
2019-06-01T22:56:19.394Z,5.10
2019-06-01T22:58:50.258Z,5.40
2019-06-01T23:01:22.937Z,4.63
2019-06-01T23:03:53.835Z,4.73
2019-06-01T23:06:25.013Z,4.90
2019-06-01T23:08:55.987Z,4.73
2019-06-01T23:11:27.529Z,5.00
2019-06-01T23:13:58.377Z,5.30
2019-06-01T23:16:29.726Z,5.13
2019-06-01T23:19:00.955Z,5.30
2019-06-01T23:21:32.048Z,4.70
2019-06-01T23:24:03.026Z,4.40
2019-06-01T23:26:33.922Z,4.67
2019-06-01T23:29:05.992Z,4.43
2019-06-01T23:31:36.784Z,4.57
2019-06-01T23:34:07.760Z,4.50
2019-06-01T23:36:38.558Z,4.27
2019-06-01T23:39:09.376Z,4.50
2019-06-01T23:41:40.245Z,4.30
2019-06-01T23:44:12.653Z,4.20
2019-06-01T23:46:43.818Z,4.47
2019-06-01T23:49:16.418Z,4.67
2019-06-01T23:51:48.126Z,4.00
2019-06-01T23:54:18.939Z,4.67
2019-06-01T23:56:49.892Z,4.37
2019-06-01T23:59:20.820Z,4.57
